Decoded Metar for KOFK (NORFOLK in NE, USA) (IATA:OFK) | Meteo·Mobile Aviation Weather
aviador You're here:

KOFK Decoded Metar

NORFOLK in NE, USA
Report Time2019-01-21 23:56:00
UTC Time2019-01-22 00:04:11
Flight Rules ifr IFR
Wind110° at 14 Gusting to 20 kt
W.Decomp.*RWY 14: 11.5 kt HW 8 kt LCW
RWY 19: 1.2 kt HW 13.9 kt LCW
W.Rank110° ranks 19
Current wind is above 110° avg. (6.7)
Visibility4828 m
Phenomena:Light Freezing Rain
Mist
Clouds:Overcast 009 Hf
Expected CloudBase > 400 ft AGL from Temp-Dew spread
Ceiling900 ft
Temp-8°C (ISA -20)
Dew Point-9°C (93% RH)
AAT-16.0°C
QNH1008 hPa
Density Alt-709 ft
Elevation1,542 ft
Report Wrong Elevation
Raw Report
METAR KOFK 212356Z AUTO 11014G20KT 3SM -FZRA BR OVC009 M08/M09 A2976
RMK AO2 UPB12E24FZRAB24 SLP107 P0000 60000 I1002 I6002
T10781089 11078 21089 55003 $=

Extra information for KOFK:More info

Metar Taf Metar & Taf Last 4 Metars F.Rules Stats Wind Profile Meteogram Temp Stats Airport Information Weather charts Add Link Nearby VenuesMetar ALERT Operation Metar Decoded Social comments

AIRNAV info for KOFK